sensor_id;sensor_type;location;lat;lon;timestamp;P1;durP1;ratioP1;P2;durP2;ratioP2
60859;SDS011;46694;54.382;9.708;2023-02-12T00:02:11;10.10;;;4.50;;
60859;SDS011;46694;54.382;9.708;2023-02-12T00:04:51;6.45;;;4.50;;
60859;SDS011;46694;54.382;9.708;2023-02-12T00:07:30;4.75;;;3.78;;
60859;SDS011;46694;54.382;9.708;2023-02-12T00:10:10;8.15;;;3.22;;
60859;SDS011;46694;54.382;9.708;2023-02-12T00:12:53;12.23;;;4.30;;
60859;SDS011;46694;54.382;9.708;2023-02-12T00:15:33;13.68;;;3.78;;
60859;SDS011;46694;54.382;9.708;2023-02-12T00:18:16;8.48;;;4.18;;
60859;SDS011;46694;54.382;9.708;2023-02-12T00:20:57;8.68;;;3.55;;
60859;SDS011;46694;54.382;9.708;2023-02-12T00:23:38;7.57;;;3.60;;
60859;SDS011;46694;54.382;9.708;2023-02-12T00:26:19;9.68;;;3.85;;
60859;SDS011;46694;54.382;9.708;2023-02-12T00:29:00;11.48;;;4.88;;
60859;SDS011;46694;54.382;9.708;2023-02-12T00:31:40;11.27;;;4.40;;
60859;SDS011;46694;54.382;9.708;2023-02-12T00:34:20;12.73;;;3.85;;
60859;SDS011;46694;54.382;9.708;2023-02-12T00:36:59;12.60;;;4.82;;
60859;SDS011;46694;54.382;9.708;2023-02-12T00:39:38;16.42;;;4.28;;
60859;SDS011;46694;54.382;9.708;2023-02-12T00:42:19;13.95;;;4.07;;
60859;SDS011;46694;54.382;9.708;2023-02-12T00:44:58;17.80;;;4.20;;
60859;SDS011;46694;54.382;9.708;2023-02-12T00:47:37;15.07;;;4.75;;
60859;SDS011;46694;54.382;9.708;2023-02-12T00:50:17;14.75;;;5.03;;
60859;SDS011;46694;54.382;9.708;2023-02-12T00:52:57;14.52;;;5.63;;
60859;SDS011;46694;54.382;9.708;2023-02-12T00:55:36;32.05;;;5.80;;
60859;SDS011;46694;54.382;9.708;2023-02-12T00:58:16;22.70;;;6.30;;
60859;SDS011;46694;54.382;9.708;2023-02-12T01:00:55;25.77;;;7.10;;
60859;SDS011;46694;54.382;9.708;2023-02-12T01:03:35;26.23;;;7.05;;
60859;SDS011;46694;54.382;9.708;2023-02-12T01:06:14;21.98;;;7.25;;
60859;SDS011;46694;54.382;9.708;2023-02-12T01:08:54;21.42;;;6.20;;
60859;SDS011;46694;54.382;9.708;2023-02-12T01:11:34;19.35;;;6.13;;
60859;SDS011;46694;54.382;9.708;2023-02-12T01:14:13;23.60;;;7.38;;
60859;SDS011;46694;54.382;9.708;2023-02-12T01:16:53;19.45;;;5.70;;
60859;SDS011;46694;54.382;9.708;2023-02-12T01:19:32;32.42;;;6.65;;
60859;SDS011;46694;54.382;9.708;2023-02-12T01:22:12;23.33;;;5.65;;
60859;SDS011;46694;54.382;9.708;2023-02-12T01:24:52;24.67;;;6.13;;
60859;SDS011;46694;54.382;9.708;2023-02-12T01:27:31;26.23;;;5.78;;
60859;SDS011;46694;54.382;9.708;2023-02-12T01:30:11;34.60;;;6.75;;
60859;SDS011;46694;54.382;9.708;2023-02-12T01:32:55;27.67;;;6.80;;
60859;SDS011;46694;54.382;9.708;2023-02-12T01:35:36;22.35;;;5.75;;
60859;SDS011;46694;54.382;9.708;2023-02-12T01:38:16;36.90;;;7.35;;
60859;SDS011;46694;54.382;9.708;2023-02-12T01:41:03;20.60;;;6.90;;
60859;SDS011;46694;54.382;9.708;2023-02-12T01:43:42;23.25;;;6.85;;
60859;SDS011;46694;54.382;9.708;2023-02-12T01:46:24;30.45;;;6.60;;
60859;SDS011;46694;54.382;9.708;2023-02-12T01:49:04;40.85;;;7.20;;
60859;SDS011;46694;54.382;9.708;2023-02-12T01:51:54;33.72;;;6.78;;
60859;SDS011;46694;54.382;9.708;2023-02-12T01:54:44;28.67;;;5.93;;
60859;SDS011;46694;54.382;9.708;2023-02-12T01:57:26;33.13;;;6.47;;
60859;SDS011;46694;54.382;9.708;2023-02-12T02:00:12;26.85;;;6.63;;
60859;SDS011;46694;54.382;9.708;2023-02-12T02:03:00;27.65;;;6.65;;
60859;SDS011;46694;54.382;9.708;2023-02-12T02:05:41;28.63;;;6.82;;
60859;SDS011;46694;54.382;9.708;2023-02-12T02:08:28;42.10;;;7.43;;
60859;SDS011;46694;54.382;9.708;2023-02-12T02:11:08;32.08;;;6.97;;
60859;SDS011;46694;54.382;9.708;2023-02-12T02:14:07;24.73;;;6.47;;
60859;SDS011;46694;54.382;9.708;2023-02-12T02:17:15;27.98;;;7.10;;
60859;SDS011;46694;54.382;9.708;2023-02-12T02:33:05;40.45;;;7.53;;
60859;SDS011;46694;54.382;9.708;2023-02-12T02:45:18;35.97;;;7.38;;
60859;SDS011;46694;54.382;9.708;2023-02-12T02:51:04;39.17;;;9.07;;
60859;SDS011;46694;54.382;9.708;2023-02-12T02:54:32;64.38;;;7.93;;
60859;SDS011;46694;54.382;9.708;2023-02-12T02:56:58;74.25;;;10.25;;
60859;SDS011;46694;54.382;9.708;2023-02-12T02:59:50;49.70;;;8.95;;
60859;SDS011;46694;54.382;9.708;2023-02-12T03:02:36;57.60;;;8.65;;
60859;SDS011;46694;54.382;9.708;2023-02-12T03:05:20;57.33;;;9.68;;
60859;SDS011;46694;54.382;9.708;2023-02-12T03:11:13;53.10;;;8.63;;
60859;SDS011;46694;54.382;9.708;2023-02-12T03:17:07;62.95;;;8.40;;
60859;SDS011;46694;54.382;9.708;2023-02-12T03:19:53;40.45;;;7.72;;
60859;SDS011;46694;54.382;9.708;2023-02-12T03:22:50;48.17;;;6.72;;
60859;SDS011;46694;54.382;9.708;2023-02-12T03:25:49;48.25;;;8.40;;
60859;SDS011;46694;54.382;9.708;2023-02-12T03:28:36;35.58;;;6.05;;
60859;SDS011;46694;54.382;9.708;2023-02-12T03:44:10;46.55;;;8.68;;
60859;SDS011;46694;54.382;9.708;2023-02-12T03:50:09;59.30;;;8.45;;
60859;SDS011;46694;54.382;9.708;2023-02-12T03:53:13;59.55;;;8.35;;
60859;SDS011;46694;54.382;9.708;2023-02-12T03:55:55;68.47;;;7.93;;
60859;SDS011;46694;54.382;9.708;2023-02-12T03:58:44;39.13;;;7.20;;
60859;SDS011;46694;54.382;9.708;2023-02-12T04:01:24;40.33;;;7.72;;
60859;SDS011;46694;54.382;9.708;2023-02-12T04:04:06;35.25;;;8.73;;
60859;SDS011;46694;54.382;9.708;2023-02-12T04:06:47;63.55;;;8.20;;
60859;SDS011;46694;54.382;9.708;2023-02-12T04:09:28;44.28;;;7.20;;
60859;SDS011;46694;54.382;9.708;2023-02-12T04:21:06;73.97;;;8.35;;
60859;SDS011;46694;54.382;9.708;2023-02-12T04:30:33;45.58;;;8.38;;
60859;SDS011;46694;54.382;9.708;2023-02-12T04:33:19;65.70;;;9.48;;
60859;SDS011;46694;54.382;9.708;2023-02-12T04:36:02;45.10;;;9.77;;
60859;SDS011;46694;54.382;9.708;2023-02-12T04:38:52;38.22;;;8.60;;
60859;SDS011;46694;54.382;9.708;2023-02-12T04:41:38;32.40;;;9.23;;
60859;SDS011;46694;54.382;9.708;2023-02-12T04:44:24;53.10;;;9.48;;
60859;SDS011;46694;54.382;9.708;2023-02-12T04:47:08;32.75;;;8.63;;
60859;SDS011;46694;54.382;9.708;2023-02-12T04:49:53;56.10;;;11.73;;
60859;SDS011;46694;54.382;9.708;2023-02-12T04:52:33;53.17;;;9.50;;
60859;SDS011;46694;54.382;9.708;2023-02-12T04:55:12;67.22;;;9.82;;
60859;SDS011;46694;54.382;9.708;2023-02-12T04:57:52;55.40;;;10.35;;
60859;SDS011;46694;54.382;9.708;2023-02-12T05:00:32;68.20;;;10.13;;
60859;SDS011;46694;54.382;9.708;2023-02-12T05:03:12;61.67;;;11.82;;
60859;SDS011;46694;54.382;9.708;2023-02-12T05:05:51;60.58;;;12.70;;
60859;SDS011;46694;54.382;9.708;2023-02-12T05:08:31;75.40;;;12.60;;
60859;SDS011;46694;54.382;9.708;2023-02-12T05:11:10;68.80;;;11.80;;
60859;SDS011;46694;54.382;9.708;2023-02-12T05:13:51;78.03;;;12.18;;
60859;SDS011;46694;54.382;9.708;2023-02-12T05:16:31;57.63;;;12.82;;
60859;SDS011;46694;54.382;9.708;2023-02-12T05:19:10;87.43;;;15.15;;
60859;SDS011;46694;54.382;9.708;2023-02-12T05:21:50;79.05;;;16.95;;
60859;SDS011;46694;54.382;9.708;2023-02-12T05:24:29;84.93;;;15.32;;
60859;SDS011;46694;54.382;9.708;2023-02-12T05:27:09;89.07;;;13.90;;
60859;SDS011;46694;54.382;9.708;2023-02-12T05:29:48;126.10;;;18.10;;
60859;SDS011;46694;54.382;9.708;2023-02-12T05:32:28;94.45;;;17.08;;
60859;SDS011;46694;54.382;9.708;2023-02-12T05:35:08;75.97;;;16.98;;
60859;SDS011;46694;54.382;9.708;2023-02-12T05:37:47;115.78;;;16.27;;
60859;SDS011;46694;54.382;9.708;2023-02-12T05:40:27;89.85;;;15.80;;
60859;SDS011;46694;54.382;9.708;2023-02-12T05:43:06;119.55;;;16.83;;
60859;SDS011;46694;54.382;9.708;2023-02-12T05:45:46;110.40;;;15.30;;
60859;SDS011;46694;54.382;9.708;2023-02-12T05:48:25;98.13;;;15.93;;
60859;SDS011;46694;54.382;9.708;2023-02-12T05:51:10;96.20;;;14.50;;
60859;SDS011;46694;54.382;9.708;2023-02-12T05:53:57;80.07;;;14.73;;
60859;SDS011;46694;54.382;9.708;2023-02-12T05:56:42;81.45;;;14.48;;
60859;SDS011;46694;54.382;9.708;2023-02-12T05:59:24;80.28;;;13.50;;
60859;SDS011;46694;54.382;9.708;2023-02-12T06:02:03;102.45;;;14.13;;
60859;SDS011;46694;54.382;9.708;2023-02-12T06:04:43;66.95;;;11.73;;
60859;SDS011;46694;54.382;9.708;2023-02-12T06:07:23;95.05;;;13.30;;
60859;SDS011;46694;54.382;9.708;2023-02-12T06:10:02;68.90;;;13.70;;
60859;SDS011;46694;54.382;9.708;2023-02-12T06:12:42;91.78;;;14.40;;
60859;SDS011;46694;54.382;9.708;2023-02-12T06:15:22;68.30;;;12.73;;
60859;SDS011;46694;54.382;9.708;2023-02-12T06:18:02;82.22;;;12.30;;
60859;SDS011;46694;54.382;9.708;2023-02-12T06:20:41;108.72;;;14.18;;
60859;SDS011;46694;54.382;9.708;2023-02-12T06:23:21;104.03;;;13.55;;
60859;SDS011;46694;54.382;9.708;2023-02-12T06:26:02;82.32;;;13.00;;
60859;SDS011;46694;54.382;9.708;2023-02-12T06:28:42;90.20;;;14.05;;
60859;SDS011;46694;54.382;9.708;2023-02-12T06:34:08;101.38;;;13.57;;
60859;SDS011;46694;54.382;9.708;2023-02-12T06:36:50;99.55;;;15.05;;
60859;SDS011;46694;54.382;9.708;2023-02-12T06:39:30;102.68;;;13.43;;
60859;SDS011;46694;54.382;9.708;2023-02-12T06:42:09;105.78;;;14.32;;
60859;SDS011;46694;54.382;9.708;2023-02-12T06:44:49;83.03;;;13.20;;
60859;SDS011;46694;54.382;9.708;2023-02-12T06:47:28;103.93;;;15.32;;
60859;SDS011;46694;54.382;9.708;2023-02-12T06:50:08;78.60;;;14.50;;
60859;SDS011;46694;54.382;9.708;2023-02-12T06:52:48;87.03;;;12.60;;
60859;SDS011;46694;54.382;9.708;2023-02-12T06:55:28;94.28;;;13.23;;
60859;SDS011;46694;54.382;9.708;2023-02-12T06:58:07;97.25;;;14.27;;
60859;SDS011;46694;54.382;9.708;2023-02-12T07:00:47;80.53;;;12.32;;
60859;SDS011;46694;54.382;9.708;2023-02-12T07:03:26;99.63;;;13.65;;
60859;SDS011;46694;54.382;9.708;2023-02-12T07:06:06;75.65;;;14.35;;
60859;SDS011;46694;54.382;9.708;2023-02-12T07:08:46;80.18;;;14.65;;
60859;SDS011;46694;54.382;9.708;2023-02-12T07:11:26;75.95;;;13.73;;
60859;SDS011;46694;54.382;9.708;2023-02-12T07:14:13;103.32;;;14.05;;
60859;SDS011;46694;54.382;9.708;2023-02-12T07:16:54;79.00;;;13.60;;
60859;SDS011;46694;54.382;9.708;2023-02-12T07:19:33;65.35;;;13.57;;
60859;SDS011;46694;54.382;9.708;2023-02-12T07:22:14;64.72;;;13.30;;
60859;SDS011;46694;54.382;9.708;2023-02-12T07:24:53;70.75;;;13.65;;
60859;SDS011;46694;54.382;9.708;2023-02-12T07:27:35;55.33;;;14.23;;
60859;SDS011;46694;54.382;9.708;2023-02-12T07:30:15;84.30;;;13.23;;
60859;SDS011;46694;54.382;9.708;2023-02-12T07:32:55;76.53;;;14.50;;
60859;SDS011;46694;54.382;9.708;2023-02-12T07:35:34;97.45;;;14.25;;
60859;SDS011;46694;54.382;9.708;2023-02-12T07:38:14;62.90;;;13.43;;
60859;SDS011;46694;54.382;9.708;2023-02-12T07:40:55;93.90;;;13.90;;
60859;SDS011;46694;54.382;9.708;2023-02-12T07:43:45;69.95;;;13.65;;
60859;SDS011;46694;54.382;9.708;2023-02-12T07:46:31;74.55;;;11.85;;
60859;SDS011;46694;54.382;9.708;2023-02-12T07:49:20;83.20;;;13.95;;
60859;SDS011;46694;54.382;9.708;2023-02-12T07:52:00;73.43;;;13.23;;
60859;SDS011;46694;54.382;9.708;2023-02-12T07:54:40;70.95;;;13.63;;
60859;SDS011;46694;54.382;9.708;2023-02-12T07:57:19;82.35;;;13.63;;
60859;SDS011;46694;54.382;9.708;2023-02-12T07:59:59;76.22;;;13.23;;
60859;SDS011;46694;54.382;9.708;2023-02-12T08:02:39;100.70;;;15.18;;
60859;SDS011;46694;54.382;9.708;2023-02-12T08:05:19;69.32;;;13.60;;
60859;SDS011;46694;54.382;9.708;2023-02-12T08:07:59;86.03;;;12.95;;
60859;SDS011;46694;54.382;9.708;2023-02-12T08:10:38;78.50;;;13.85;;
60859;SDS011;46694;54.382;9.708;2023-02-12T08:13:18;76.50;;;14.93;;
60859;SDS011;46694;54.382;9.708;2023-02-12T08:16:02;61.15;;;13.25;;
60859;SDS011;46694;54.382;9.708;2023-02-12T08:18:45;67.10;;;13.88;;
60859;SDS011;46694;54.382;9.708;2023-02-12T08:21:26;105.82;;;22.25;;
60859;SDS011;46694;54.382;9.708;2023-02-12T08:24:08;79.95;;;15.38;;
60859;SDS011;46694;54.382;9.708;2023-02-12T08:26:48;114.13;;;27.90;;
60859;SDS011;46694;54.382;9.708;2023-02-12T08:29:28;96.50;;;15.10;;
60859;SDS011;46694;54.382;9.708;2023-02-12T08:32:08;106.43;;;23.63;;
60859;SDS011;46694;54.382;9.708;2023-02-12T08:34:51;128.27;;;28.60;;
60859;SDS011;46694;54.382;9.708;2023-02-12T08:37:31;104.63;;;24.45;;
60859;SDS011;46694;54.382;9.708;2023-02-12T08:40:11;88.90;;;24.13;;
60859;SDS011;46694;54.382;9.708;2023-02-12T08:42:51;70.18;;;17.05;;
60859;SDS011;46694;54.382;9.708;2023-02-12T08:45:31;74.40;;;15.98;;
60859;SDS011;46694;54.382;9.708;2023-02-12T08:48:10;75.68;;;15.57;;
60859;SDS011;46694;54.382;9.708;2023-02-12T08:50:50;133.32;;;15.73;;
60859;SDS011;46694;54.382;9.708;2023-02-12T08:53:30;98.05;;;21.55;;
60859;SDS011;46694;54.382;9.708;2023-02-12T08:56:14;91.38;;;15.27;;
60859;SDS011;46694;54.382;9.708;2023-02-12T08:58:56;68.50;;;11.90;;
60859;SDS011;46694;54.382;9.708;2023-02-12T09:01:36;115.30;;;13.90;;
60859;SDS011;46694;54.382;9.708;2023-02-12T09:04:23;69.00;;;15.32;;
60859;SDS011;46694;54.382;9.708;2023-02-12T09:07:04;83.88;;;13.98;;
60859;SDS011;46694;54.382;9.708;2023-02-12T09:09:44;70.53;;;11.82;;
60859;SDS011;46694;54.382;9.708;2023-02-12T09:12:24;47.53;;;10.15;;
60859;SDS011;46694;54.382;9.708;2023-02-12T09:15:03;64.82;;;13.93;;
60859;SDS011;46694;54.382;9.708;2023-02-12T09:17:43;75.20;;;13.17;;
60859;SDS011;46694;54.382;9.708;2023-02-12T09:20:23;68.18;;;12.52;;
60859;SDS011;46694;54.382;9.708;2023-02-12T09:23:03;81.80;;;11.30;;
60859;SDS011;46694;54.382;9.708;2023-02-12T09:25:44;64.20;;;13.50;;
60859;SDS011;46694;54.382;9.708;2023-02-12T09:28:24;81.78;;;16.45;;
60859;SDS011;46694;54.382;9.708;2023-02-12T09:31:08;77.30;;;15.23;;
60859;SDS011;46694;54.382;9.708;2023-02-12T09:33:59;67.87;;;16.33;;
60859;SDS011;46694;54.382;9.708;2023-02-12T09:36:42;57.75;;;12.50;;
60859;SDS011;46694;54.382;9.708;2023-02-12T09:39:22;45.83;;;13.95;;
60859;SDS011;46694;54.382;9.708;2023-02-12T09:47:41;46.23;;;11.87;;
60859;SDS011;46694;54.382;9.708;2023-02-12T09:50:30;71.03;;;12.47;;
60859;SDS011;46694;54.382;9.708;2023-02-12T09:53:30;51.22;;;12.40;;
60859;SDS011;46694;54.382;9.708;2023-02-12T09:56:15;48.70;;;12.53;;
60859;SDS011;46694;54.382;9.708;2023-02-12T09:59:00;53.05;;;11.48;;
60859;SDS011;46694;54.382;9.708;2023-02-12T10:01:44;48.22;;;12.23;;
60859;SDS011;46694;54.382;9.708;2023-02-12T10:04:24;60.00;;;18.43;;
60859;SDS011;46694;54.382;9.708;2023-02-12T10:07:18;32.13;;;9.33;;
60859;SDS011;46694;54.382;9.708;2023-02-12T10:11:08;33.77;;;11.33;;
60859;SDS011;46694;54.382;9.708;2023-02-12T10:20:14;36.63;;;7.07;;
60859;SDS011;46694;54.382;9.708;2023-02-12T10:23:13;19.50;;;6.30;;
60859;SDS011;46694;54.382;9.708;2023-02-12T10:29:19;16.57;;;5.67;;
60859;SDS011;46694;54.382;9.708;2023-02-12T10:32:08;32.77;;;6.83;;
60859;SDS011;46694;54.382;9.708;2023-02-12T10:35:13;29.10;;;6.10;;
60859;SDS011;46694;54.382;9.708;2023-02-12T10:40:45;31.13;;;6.63;;
60859;SDS011;46694;54.382;9.708;2023-02-12T10:43:25;21.90;;;6.37;;
60859;SDS011;46694;54.382;9.708;2023-02-12T10:46:04;17.03;;;5.97;;
60859;SDS011;46694;54.382;9.708;2023-02-12T10:48:44;20.27;;;6.20;;
60859;SDS011;46694;54.382;9.708;2023-02-12T10:51:39;14.70;;;5.10;;
60859;SDS011;46694;54.382;9.708;2023-02-12T10:54:43;16.43;;;5.20;;
60859;SDS011;46694;54.382;9.708;2023-02-12T10:57:27;23.93;;;6.50;;
60859;SDS011;46694;54.382;9.708;2023-02-12T11:00:21;17.10;;;5.30;;
60859;SDS011;46694;54.382;9.708;2023-02-12T11:03:19;22.13;;;5.77;;
60859;SDS011;46694;54.382;9.708;2023-02-12T11:09:17;10.37;;;4.40;;
60859;SDS011;46694;54.382;9.708;2023-02-12T11:12:30;10.87;;;4.83;;
60859;SDS011;46694;54.382;9.708;2023-02-12T11:15:22;9.53;;;5.27;;
60859;SDS011;46694;54.382;9.708;2023-02-12T11:18:05;6.47;;;3.50;;
60859;SDS011;46694;54.382;9.708;2023-02-12T11:20:49;8.00;;;4.20;;
60859;SDS011;46694;54.382;9.708;2023-02-12T11:23:43;9.57;;;5.37;;
60859;SDS011;46694;54.382;9.708;2023-02-12T11:26:25;19.93;;;9.27;;
60859;SDS011;46694;54.382;9.708;2023-02-12T11:29:20;10.47;;;6.80;;
60859;SDS011;46694;54.382;9.708;2023-02-12T11:32:03;12.07;;;7.70;;
60859;SDS011;46694;54.382;9.708;2023-02-12T11:38:19;7.07;;;5.30;;
60859;SDS011;46694;54.382;9.708;2023-02-12T11:41:17;15.17;;;6.03;;
60859;SDS011;46694;54.382;9.708;2023-02-12T11:44:25;7.80;;;6.50;;
60859;SDS011;46694;54.382;9.708;2023-02-12T11:47:15;6.20;;;5.70;;
60859;SDS011;46694;54.382;9.708;2023-02-12T11:53:08;5.00;;;3.10;;
60859;SDS011;46694;54.382;9.708;2023-02-12T11:55:58;9.50;;;2.43;;
60859;SDS011;46694;54.382;9.708;2023-02-12T11:58:44;3.03;;;2.73;;
60859;SDS011;46694;54.382;9.708;2023-02-12T12:01:32;3.20;;;3.03;;
60859;SDS011;46694;54.382;9.708;2023-02-12T12:04:13;3.33;;;3.00;;
60859;SDS011;46694;54.382;9.708;2023-02-12T12:06:57;3.77;;;2.70;;
60859;SDS011;46694;54.382;9.708;2023-02-12T12:12:44;2.60;;;2.50;;
60859;SDS011;46694;54.382;9.708;2023-02-12T12:15:31;9.53;;;3.90;;
60859;SDS011;46694;54.382;9.708;2023-02-12T12:18:45;3.40;;;3.20;;
60859;SDS011;46694;54.382;9.708;2023-02-12T12:22:01;4.20;;;3.50;;
60859;SDS011;46694;54.382;9.708;2023-02-12T12:25:21;6.60;;;2.70;;
60859;SDS011;46694;54.382;9.708;2023-02-12T12:31:52;5.00;;;3.90;;
60859;SDS011;46694;54.382;9.708;2023-02-12T12:34:39;13.07;;;8.90;;
60859;SDS011;46694;54.382;9.708;2023-02-12T12:40:47;9.63;;;8.10;;
60859;SDS011;46694;54.382;9.708;2023-02-12T12:43:48;11.67;;;8.40;;
60859;SDS011;46694;54.382;9.708;2023-02-12T12:50:49;12.17;;;9.83;;
60859;SDS011;46694;54.382;9.708;2023-02-12T12:53:23;48.57;;;36.20;;
60859;SDS011;46694;54.382;9.708;2023-02-12T13:09:31;10.33;;;8.70;;
60859;SDS011;46694;54.382;9.708;2023-02-12T13:18:19;6.87;;;5.70;;
60859;SDS011;46694;54.382;9.708;2023-02-12T13:33:27;9.30;;;8.40;;
60859;SDS011;46694;54.382;9.708;2023-02-12T13:36:34;7.80;;;7.10;;
60859;SDS011;46694;54.382;9.708;2023-02-12T13:39:17;3.43;;;3.23;;
60859;SDS011;46694;54.382;9.708;2023-02-12T13:56:54;5.90;;;5.40;;
60859;SDS011;46694;54.382;9.708;2023-02-12T13:59:39;7.87;;;6.73;;
60859;SDS011;46694;54.382;9.708;2023-02-12T14:02:26;5.00;;;4.60;;
60859;SDS011;46694;54.382;9.708;2023-02-12T14:08:00;4.47;;;4.17;;
60859;SDS011;46694;54.382;9.708;2023-02-12T14:10:43;2.90;;;2.70;;
60859;SDS011;46694;54.382;9.708;2023-02-12T14:19:36;7.30;;;5.70;;
60859;SDS011;46694;54.382;9.708;2023-02-12T14:37:08;2.60;;;2.40;;
60859;SDS011;46694;54.382;9.708;2023-02-12T14:40:15;3.05;;;2.85;;
60859;SDS011;46694;54.382;9.708;2023-02-12T14:49:19;6.82;;;5.10;;
60859;SDS011;46694;54.382;9.708;2023-02-12T14:52:18;9.85;;;4.25;;
60859;SDS011;46694;54.382;9.708;2023-02-12T14:55:07;7.28;;;6.65;;
60859;SDS011;46694;54.382;9.708;2023-02-12T14:58:21;15.30;;;12.20;;
60859;SDS011;46694;54.382;9.708;2023-02-12T15:01:03;18.80;;;9.53;;
60859;SDS011;46694;54.382;9.708;2023-02-12T15:03:45;8.03;;;5.60;;
60859;SDS011;46694;54.382;9.708;2023-02-12T15:06:38;12.73;;;11.00;;
60859;SDS011;46694;54.382;9.708;2023-02-12T15:09:32;14.77;;;11.90;;
60859;SDS011;46694;54.382;9.708;2023-02-12T15:12:19;39.17;;;25.70;;
60859;SDS011;46694;54.382;9.708;2023-02-12T15:15:27;24.53;;;18.73;;
60859;SDS011;46694;54.382;9.708;2023-02-12T15:18:15;12.07;;;7.35;;
60859;SDS011;46694;54.382;9.708;2023-02-12T15:21:18;13.47;;;8.17;;
60859;SDS011;46694;54.382;9.708;2023-02-12T15:24:08;12.80;;;6.93;;
60859;SDS011;46694;54.382;9.708;2023-02-12T15:26:54;13.48;;;6.80;;
60859;SDS011;46694;54.382;9.708;2023-02-12T15:29:50;12.95;;;6.43;;
60859;SDS011;46694;54.382;9.708;2023-02-12T15:32:30;15.48;;;10.02;;
60859;SDS011;46694;54.382;9.708;2023-02-12T15:35:22;16.52;;;10.20;;
60859;SDS011;46694;54.382;9.708;2023-02-12T15:38:06;16.20;;;9.65;;
60859;SDS011;46694;54.382;9.708;2023-02-12T15:40:52;14.03;;;8.90;;
60859;SDS011;46694;54.382;9.708;2023-02-12T15:43:38;19.43;;;9.17;;
60859;SDS011;46694;54.382;9.708;2023-02-12T15:46:18;17.07;;;9.73;;
60859;SDS011;46694;54.382;9.708;2023-02-12T15:48:58;14.07;;;10.67;;
60859;SDS011;46694;54.382;9.708;2023-02-12T15:51:38;24.67;;;13.63;;
60859;SDS011;46694;54.382;9.708;2023-02-12T15:54:19;24.63;;;14.23;;
60859;SDS011;46694;54.382;9.708;2023-02-12T15:56:59;30.67;;;17.40;;
60859;SDS011;46694;54.382;9.708;2023-02-12T15:59:39;16.13;;;10.53;;
60859;SDS011;46694;54.382;9.708;2023-02-12T16:02:20;28.15;;;17.92;;
60859;SDS011;46694;54.382;9.708;2023-02-12T16:05:05;16.50;;;9.70;;
60859;SDS011;46694;54.382;9.708;2023-02-12T16:07:45;30.27;;;16.40;;
60859;SDS011;46694;54.382;9.708;2023-02-12T16:10:25;15.93;;;8.93;;
60859;SDS011;46694;54.382;9.708;2023-02-12T16:13:05;19.40;;;12.00;;
60859;SDS011;46694;54.382;9.708;2023-02-12T16:15:59;20.55;;;10.80;;
60859;SDS011;46694;54.382;9.708;2023-02-12T16:19:06;21.20;;;10.33;;
60859;SDS011;46694;54.382;9.708;2023-02-12T16:22:07;25.25;;;15.10;;
60859;SDS011;46694;54.382;9.708;2023-02-12T16:24:52;19.50;;;11.80;;
60859;SDS011;46694;54.382;9.708;2023-02-12T16:27:34;17.48;;;10.13;;
60859;SDS011;46694;54.382;9.708;2023-02-12T16:39:02;21.03;;;10.40;;
60859;SDS011;46694;54.382;9.708;2023-02-12T16:41:50;20.90;;;11.23;;
60859;SDS011;46694;54.382;9.708;2023-02-12T16:44:34;18.97;;;11.17;;
60859;SDS011;46694;54.382;9.708;2023-02-12T16:47:23;23.98;;;13.55;;
60859;SDS011;46694;54.382;9.708;2023-02-12T16:50:03;23.25;;;11.48;;
60859;SDS011;46694;54.382;9.708;2023-02-12T16:52:43;19.83;;;11.15;;
60859;SDS011;46694;54.382;9.708;2023-02-12T16:55:22;24.45;;;11.23;;
60859;SDS011;46694;54.382;9.708;2023-02-12T16:58:02;18.05;;;11.50;;
60859;SDS011;46694;54.382;9.708;2023-02-12T17:00:42;20.03;;;11.30;;
60859;SDS011;46694;54.382;9.708;2023-02-12T17:03:21;27.25;;;12.85;;
60859;SDS011;46694;54.382;9.708;2023-02-12T17:06:02;24.30;;;13.00;;
60859;SDS011;46694;54.382;9.708;2023-02-12T17:08:42;22.75;;;12.60;;
60859;SDS011;46694;54.382;9.708;2023-02-12T17:11:21;26.50;;;13.50;;
60859;SDS011;46694;54.382;9.708;2023-02-12T17:14:02;27.85;;;14.13;;
60859;SDS011;46694;54.382;9.708;2023-02-12T17:16:42;27.27;;;14.52;;
60859;SDS011;46694;54.382;9.708;2023-02-12T17:19:22;32.38;;;13.10;;
60859;SDS011;46694;54.382;9.708;2023-02-12T17:22:02;33.08;;;13.98;;
60859;SDS011;46694;54.382;9.708;2023-02-12T17:24:43;32.35;;;14.88;;
60859;SDS011;46694;54.382;9.708;2023-02-12T17:27:28;32.67;;;15.65;;
60859;SDS011;46694;54.382;9.708;2023-02-12T17:30:09;30.48;;;13.98;;
60859;SDS011;46694;54.382;9.708;2023-02-12T17:32:54;30.00;;;13.95;;
60859;SDS011;46694;54.382;9.708;2023-02-12T17:35:33;37.83;;;15.88;;
60859;SDS011;46694;54.382;9.708;2023-02-12T17:38:15;36.58;;;16.25;;
60859;SDS011;46694;54.382;9.708;2023-02-12T17:40:55;37.58;;;17.45;;
60859;SDS011;46694;54.382;9.708;2023-02-12T17:43:34;44.35;;;17.55;;
60859;SDS011;46694;54.382;9.708;2023-02-12T17:46:21;43.00;;;18.48;;
60859;SDS011;46694;54.382;9.708;2023-02-12T17:49:04;39.38;;;16.80;;
60859;SDS011;46694;54.382;9.708;2023-02-12T17:51:44;49.72;;;18.35;;
60859;SDS011;46694;54.382;9.708;2023-02-12T17:54:24;50.35;;;20.90;;
60859;SDS011;46694;54.382;9.708;2023-02-12T17:57:03;41.08;;;19.40;;
60859;SDS011;46694;54.382;9.708;2023-02-12T17:59:42;48.53;;;18.17;;
60859;SDS011;46694;54.382;9.708;2023-02-12T18:02:22;40.35;;;16.23;;
60859;SDS011;46694;54.382;9.708;2023-02-12T18:05:02;45.97;;;16.75;;
60859;SDS011;46694;54.382;9.708;2023-02-12T18:07:42;41.25;;;17.52;;
60859;SDS011;46694;54.382;9.708;2023-02-12T18:10:22;45.88;;;17.88;;
60859;SDS011;46694;54.382;9.708;2023-02-12T18:13:02;38.80;;;17.77;;
60859;SDS011;46694;54.382;9.708;2023-02-12T18:15:42;45.03;;;18.73;;
60859;SDS011;46694;54.382;9.708;2023-02-12T18:18:21;55.42;;;19.10;;
60859;SDS011;46694;54.382;9.708;2023-02-12T18:21:04;35.97;;;16.00;;
60859;SDS011;46694;54.382;9.708;2023-02-12T18:23:48;37.25;;;18.05;;
60859;SDS011;46694;54.382;9.708;2023-02-12T18:26:28;47.67;;;20.92;;
60859;SDS011;46694;54.382;9.708;2023-02-12T18:29:08;52.25;;;17.60;;
60859;SDS011;46694;54.382;9.708;2023-02-12T18:31:47;39.40;;;17.20;;
60859;SDS011;46694;54.382;9.708;2023-02-12T18:34:27;38.88;;;17.60;;
60859;SDS011;46694;54.382;9.708;2023-02-12T18:37:07;33.33;;;16.55;;
60859;SDS011;46694;54.382;9.708;2023-02-12T18:39:48;32.03;;;16.38;;
60859;SDS011;46694;54.382;9.708;2023-02-12T18:42:27;36.50;;;19.20;;
60859;SDS011;46694;54.382;9.708;2023-02-12T18:45:10;39.03;;;18.15;;
60859;SDS011;46694;54.382;9.708;2023-02-12T18:47:50;43.50;;;18.25;;
60859;SDS011;46694;54.382;9.708;2023-02-12T18:50:29;44.88;;;19.05;;
60859;SDS011;46694;54.382;9.708;2023-02-12T18:53:09;54.42;;;23.33;;
60859;SDS011;46694;54.382;9.708;2023-02-12T18:55:48;41.63;;;20.92;;
60859;SDS011;46694;54.382;9.708;2023-02-12T18:58:28;40.20;;;20.90;;
60859;SDS011;46694;54.382;9.708;2023-02-12T19:01:15;52.65;;;27.25;;
60859;SDS011;46694;54.382;9.708;2023-02-12T19:03:57;45.50;;;23.85;;
60859;SDS011;46694;54.382;9.708;2023-02-12T19:06:40;51.08;;;23.38;;
60859;SDS011;46694;54.382;9.708;2023-02-12T19:09:26;43.65;;;21.63;;
60859;SDS011;46694;54.382;9.708;2023-02-12T19:12:05;33.50;;;17.30;;
60859;SDS011;46694;54.382;9.708;2023-02-12T19:14:45;36.30;;;16.50;;
60859;SDS011;46694;54.382;9.708;2023-02-12T19:17:24;32.15;;;15.98;;
60859;SDS011;46694;54.382;9.708;2023-02-12T19:20:04;35.38;;;16.15;;
60859;SDS011;46694;54.382;9.708;2023-02-12T19:22:44;41.67;;;16.48;;